sensor_id;sensor_type;location;lat;lon;timestamp;pressure;altitude;pressure_sealevel;temperature;humidity
47082;BME280;33066;49.296;14.470;2023-02-04T00:00:47;97047.27;;;7.38;39.40
47082;BME280;33066;49.296;14.470;2023-02-04T00:03:13;97051.61;;;7.52;39.22
47082;BME280;33066;49.296;14.470;2023-02-04T00:05:38;97036.86;;;7.73;39.24
47082;BME280;33066;49.296;14.470;2023-02-04T00:08:04;97056.84;;;7.58;39.07
47082;BME280;33066;49.296;14.470;2023-02-04T00:10:29;97023.78;;;7.79;38.68
47082;BME280;33066;49.296;14.470;2023-02-04T00:12:55;97042.41;;;7.88;38.65
47082;BME280;33066;49.296;14.470;2023-02-04T00:15:20;97044.47;;;7.78;38.80
47082;BME280;33066;49.296;14.470;2023-02-04T00:17:45;97050.55;;;7.59;38.81
47082;BME280;33066;49.296;14.470;2023-02-04T00:20:12;97049.46;;;7.88;38.82
47082;BME280;33066;49.296;14.470;2023-02-04T00:22:37;97047.53;;;7.54;38.80
47082;BME280;33066;49.296;14.470;2023-02-04T00:25:02;97051.52;;;7.77;38.89
47082;BME280;33066;49.296;14.470;2023-02-04T00:27:28;97044.77;;;7.61;39.01
47082;BME280;33066;49.296;14.470;2023-02-04T00:29:53;97053.65;;;7.66;38.95
47082;BME280;33066;49.296;14.470;2023-02-04T00:32:18;97040.43;;;7.84;38.91
47082;BME280;33066;49.296;14.470;2023-02-04T00:34:44;97059.83;;;8.15;38.82
47082;BME280;33066;49.296;14.470;2023-02-04T00:37:09;97060.97;;;7.89;38.48
47082;BME280;33066;49.296;14.470;2023-02-04T00:39:35;97054.19;;;7.94;38.76
47082;BME280;33066;49.296;14.470;2023-02-04T00:42:00;97053.48;;;8.04;38.60
47082;BME280;33066;49.296;14.470;2023-02-04T00:44:26;97048.07;;;7.87;38.45
47082;BME280;33066;49.296;14.470;2023-02-04T00:46:51;97041.75;;;8.06;38.41
47082;BME280;33066;49.296;14.470;2023-02-04T00:49:17;97045.66;;;7.95;38.54
47082;BME280;33066;49.296;14.470;2023-02-04T00:51:42;97053.04;;;8.05;38.57
47082;BME280;33066;49.296;14.470;2023-02-04T00:54:07;97033.72;;;7.97;38.72
47082;BME280;33066;49.296;14.470;2023-02-04T00:56:33;97042.09;;;8.06;38.38
47082;BME280;33066;49.296;14.470;2023-02-04T00:58:58;97029.20;;;7.74;38.53
47082;BME280;33066;49.296;14.470;2023-02-04T01:01:23;97040.64;;;7.79;38.81
47082;BME280;33066;49.296;14.470;2023-02-04T01:03:49;97029.21;;;7.47;39.01
47082;BME280;33066;49.296;14.470;2023-02-04T01:06:14;97040.02;;;7.34;39.37
47082;BME280;33066;49.296;14.470;2023-02-04T01:08:40;97049.89;;;7.95;39.28
47082;BME280;33066;49.296;14.470;2023-02-04T01:11:05;97065.99;;;7.58;39.06
47082;BME280;33066;49.296;14.470;2023-02-04T01:13:31;97051.06;;;7.31;39.29
47082;BME280;33066;49.296;14.470;2023-02-04T01:15:56;97091.69;;;7.57;39.49
47082;BME280;33066;49.296;14.470;2023-02-04T01:18:21;97053.23;;;7.24;39.85
47082;BME280;33066;49.296;14.470;2023-02-04T01:20:47;97066.85;;;7.28;39.63
47082;BME280;33066;49.296;14.470;2023-02-04T01:23:12;97071.69;;;7.60;39.56
47082;BME280;33066;49.296;14.470;2023-02-04T01:25:37;97055.89;;;7.76;39.26
47082;BME280;33066;49.296;14.470;2023-02-04T01:28:03;97081.28;;;7.78;39.12
47082;BME280;33066;49.296;14.470;2023-02-04T01:30:29;97059.29;;;7.45;39.27
47082;BME280;33066;49.296;14.470;2023-02-04T01:32:54;97053.83;;;7.35;39.50
47082;BME280;33066;49.296;14.470;2023-02-04T01:35:20;97071.49;;;7.38;39.50
47082;BME280;33066;49.296;14.470;2023-02-04T01:37:45;97066.56;;;7.79;39.39
47082;BME280;33066;49.296;14.470;2023-02-04T01:40:11;97063.12;;;7.18;39.87
47082;BME280;33066;49.296;14.470;2023-02-04T01:42:36;97080.76;;;7.19;39.83
47082;BME280;33066;49.296;14.470;2023-02-04T01:45:02;97080.61;;;7.20;39.52
47082;BME280;33066;49.296;14.470;2023-02-04T01:47:27;97086.87;;;7.38;39.52
47082;BME280;33066;49.296;14.470;2023-02-04T01:49:53;97076.29;;;7.49;39.43
47082;BME280;33066;49.296;14.470;2023-02-04T01:52:18;97092.41;;;7.70;39.44
47082;BME280;33066;49.296;14.470;2023-02-04T01:54:44;97093.54;;;7.51;39.58
47082;BME280;33066;49.296;14.470;2023-02-04T01:57:13;97107.05;;;7.33;39.47
47082;BME280;33066;49.296;14.470;2023-02-04T01:59:35;97114.02;;;7.48;39.68
47082;BME280;33066;49.296;14.470;2023-02-04T02:02:00;97091.93;;;7.51;39.67
47082;BME280;33066;49.296;14.470;2023-02-04T02:04:29;97089.94;;;7.71;39.18
47082;BME280;33066;49.296;14.470;2023-02-04T02:06:54;97100.44;;;7.31;39.65
47082;BME280;33066;49.296;14.470;2023-02-04T02:09:17;97106.67;;;7.14;39.86
47082;BME280;33066;49.296;14.470;2023-02-04T02:11:42;97108.82;;;7.44;40.19
47082;BME280;33066;49.296;14.470;2023-02-04T02:14:07;97115.75;;;7.46;39.95
47082;BME280;33066;49.296;14.470;2023-02-04T02:16:33;97126.48;;;7.59;39.64
47082;BME280;33066;49.296;14.470;2023-02-04T02:18:58;97150.17;;;7.74;39.91
47082;BME280;33066;49.296;14.470;2023-02-04T02:21:30;97152.74;;;7.65;40.40
47082;BME280;33066;49.296;14.470;2023-02-04T02:23:51;97147.94;;;7.99;40.06
47082;BME280;33066;49.296;14.470;2023-02-04T02:26:15;97157.06;;;8.01;40.17
47082;BME280;33066;49.296;14.470;2023-02-04T02:28:41;97157.62;;;8.00;40.50
47082;BME280;33066;49.296;14.470;2023-02-04T02:31:06;97164.26;;;7.27;40.76
47082;BME280;33066;49.296;14.470;2023-02-04T02:33:31;97166.81;;;8.09;40.56
47082;BME280;33066;49.296;14.470;2023-02-04T02:35:57;97160.52;;;7.80;40.62
47082;BME280;33066;49.296;14.470;2023-02-04T02:38:22;97162.75;;;7.44;41.10
47082;BME280;33066;49.296;14.470;2023-02-04T02:40:48;97152.05;;;7.58;41.21
47082;BME280;33066;49.296;14.470;2023-02-04T02:43:15;97178.53;;;7.55;41.58
47082;BME280;33066;49.296;14.470;2023-02-04T02:45:39;97181.93;;;7.44;41.85
47082;BME280;33066;49.296;14.470;2023-02-04T02:48:04;97172.15;;;7.40;42.37
47082;BME280;33066;49.296;14.470;2023-02-04T02:50:31;97211.57;;;7.15;43.27
47082;BME280;33066;49.296;14.470;2023-02-04T02:52:55;97233.64;;;7.22;44.59
47082;BME280;33066;49.296;14.470;2023-02-04T02:55:23;97263.22;;;7.08;45.15
47082;BME280;33066;49.296;14.470;2023-02-04T02:57:47;97277.12;;;6.84;46.31
47082;BME280;33066;49.296;14.470;2023-02-04T03:00:14;97282.89;;;6.63;47.03
47082;BME280;33066;49.296;14.470;2023-02-04T03:02:37;97302.72;;;6.58;47.72
47082;BME280;33066;49.296;14.470;2023-02-04T03:05:03;97309.06;;;6.32;47.54
47082;BME280;33066;49.296;14.470;2023-02-04T03:07:28;97315.53;;;6.57;47.00
47082;BME280;33066;49.296;14.470;2023-02-04T03:09:54;97317.35;;;6.60;46.43
47082;BME280;33066;49.296;14.470;2023-02-04T03:12:19;97337.31;;;6.62;46.42
47082;BME280;33066;49.296;14.470;2023-02-04T03:14:45;97337.47;;;6.70;44.73
47082;BME280;33066;49.296;14.470;2023-02-04T03:17:11;97350.78;;;5.92;45.48
47082;BME280;33066;49.296;14.470;2023-02-04T03:19:36;97351.27;;;5.74;46.40
47082;BME280;33066;49.296;14.470;2023-02-04T03:22:02;97359.42;;;5.60;46.03
47082;BME280;33066;49.296;14.470;2023-02-04T03:24:27;97369.79;;;5.43;45.90
47082;BME280;33066;49.296;14.470;2023-02-04T03:26:52;97377.37;;;5.78;45.67
47082;BME280;33066;49.296;14.470;2023-02-04T03:29:18;97387.23;;;5.48;45.00
47082;BME280;33066;49.296;14.470;2023-02-04T03:31:43;97377.93;;;5.80;43.75
47082;BME280;33066;49.296;14.470;2023-02-04T03:34:09;97402.63;;;5.52;44.07
47082;BME280;33066;49.296;14.470;2023-02-04T03:36:35;97425.23;;;5.46;44.19
47082;BME280;33066;49.296;14.470;2023-02-04T03:39:00;97434.16;;;5.81;43.68
47082;BME280;33066;49.296;14.470;2023-02-04T03:41:26;97439.40;;;5.77;42.59
47082;BME280;33066;49.296;14.470;2023-02-04T03:43:51;97445.77;;;5.87;42.27
47082;BME280;33066;49.296;14.470;2023-02-04T03:46:17;97466.64;;;5.88;41.68
47082;BME280;33066;49.296;14.470;2023-02-04T03:48:42;97464.52;;;5.58;41.62
47082;BME280;33066;49.296;14.470;2023-02-04T03:51:08;97472.89;;;5.29;42.10
47082;BME280;33066;49.296;14.470;2023-02-04T03:53:33;97493.74;;;5.32;42.26
47082;BME280;33066;49.296;14.470;2023-02-04T03:55:59;97478.50;;;5.41;40.04
47082;BME280;33066;49.296;14.470;2023-02-04T03:58:24;97505.11;;;5.33;40.02
47082;BME280;33066;49.296;14.470;2023-02-04T04:00:50;97509.12;;;5.39;39.60
47082;BME280;33066;49.296;14.470;2023-02-04T04:03:16;97526.87;;;4.98;40.59
47082;BME280;33066;49.296;14.470;2023-02-04T04:05:41;97538.65;;;4.89;40.33
47082;BME280;33066;49.296;14.470;2023-02-04T04:08:07;97551.01;;;5.50;39.91
47082;BME280;33066;49.296;14.470;2023-02-04T04:13:00;97544.35;;;5.93;39.23
47082;BME280;33066;49.296;14.470;2023-02-04T04:15:25;97574.15;;;5.52;39.48
47082;BME280;33066;49.296;14.470;2023-02-04T04:17:51;97581.92;;;5.38;39.55
47082;BME280;33066;49.296;14.470;2023-02-04T04:20:17;97574.20;;;5.12;39.49
47082;BME280;33066;49.296;14.470;2023-02-04T04:22:42;97572.48;;;5.38;39.68
47082;BME280;33066;49.296;14.470;2023-02-04T04:25:08;97597.47;;;5.42;39.53
47082;BME280;33066;49.296;14.470;2023-02-04T04:27:33;97597.72;;;5.55;38.63
47082;BME280;33066;49.296;14.470;2023-02-04T04:29:59;97607.83;;;5.52;38.73
47082;BME280;33066;49.296;14.470;2023-02-04T04:32:24;97607.92;;;5.84;38.40
47082;BME280;33066;49.296;14.470;2023-02-04T04:34:50;97603.17;;;6.05;38.19
47082;BME280;33066;49.296;14.470;2023-02-04T04:37:16;97612.35;;;5.36;38.62
47082;BME280;33066;49.296;14.470;2023-02-04T04:39:41;97615.44;;;5.69;38.95
47082;BME280;33066;49.296;14.470;2023-02-04T04:42:07;97633.78;;;5.42;38.86
47082;BME280;33066;49.296;14.470;2023-02-04T04:44:32;97636.70;;;5.62;38.81
47082;BME280;33066;49.296;14.470;2023-02-04T04:46:58;97648.87;;;5.96;38.33
47082;BME280;33066;49.296;14.470;2023-02-04T04:49:24;97652.88;;;5.89;37.87
47082;BME280;33066;49.296;14.470;2023-02-04T04:51:49;97665.45;;;5.96;37.51
47082;BME280;33066;49.296;14.470;2023-02-04T04:54:15;97661.51;;;6.22;37.55
47082;BME280;33066;49.296;14.470;2023-02-04T04:56:40;97681.85;;;5.74;37.71
47082;BME280;33066;49.296;14.470;2023-02-04T04:59:06;97688.73;;;6.17;37.78
47082;BME280;33066;49.296;14.470;2023-02-04T05:01:31;97699.11;;;6.22;38.15
47082;BME280;33066;49.296;14.470;2023-02-04T05:03:57;97711.10;;;6.19;38.83
47082;BME280;33066;49.296;14.470;2023-02-04T05:06:23;97718.56;;;6.49;39.34
47082;BME280;33066;49.296;14.470;2023-02-04T05:08:48;97726.67;;;6.19;39.57
47082;BME280;33066;49.296;14.470;2023-02-04T05:11:13;97742.33;;;6.26;40.06
47082;BME280;33066;49.296;14.470;2023-02-04T05:13:39;97756.92;;;6.32;40.50
47082;BME280;33066;49.296;14.470;2023-02-04T05:16:05;97768.06;;;6.26;40.56
47082;BME280;33066;49.296;14.470;2023-02-04T05:18:30;97772.62;;;5.87;41.63
47082;BME280;33066;49.296;14.470;2023-02-04T05:20:56;97775.29;;;5.73;41.18
47082;BME280;33066;49.296;14.470;2023-02-04T05:23:21;97784.45;;;5.30;41.71
47082;BME280;33066;49.296;14.470;2023-02-04T05:25:47;97797.27;;;5.46;41.47
47082;BME280;33066;49.296;14.470;2023-02-04T05:28:12;97805.13;;;5.25;41.73
47082;BME280;33066;49.296;14.470;2023-02-04T05:30:38;97809.82;;;5.41;41.16
47082;BME280;33066;49.296;14.470;2023-02-04T05:33:04;97824.54;;;5.07;40.88
47082;BME280;33066;49.296;14.470;2023-02-04T05:35:29;97824.83;;;5.36;40.87
47082;BME280;33066;49.296;14.470;2023-02-04T05:37:55;97833.96;;;5.61;38.87
47082;BME280;33066;49.296;14.470;2023-02-04T05:40:20;97831.92;;;5.43;38.73
47082;BME280;33066;49.296;14.470;2023-02-04T05:42:46;97836.83;;;5.42;38.19
47082;BME280;33066;49.296;14.470;2023-02-04T05:45:13;97835.62;;;5.32;38.22
47082;BME280;33066;49.296;14.470;2023-02-04T05:47:37;97856.85;;;4.69;38.75
47082;BME280;33066;49.296;14.470;2023-02-04T05:50:03;97865.44;;;4.74;38.86
47082;BME280;33066;49.296;14.470;2023-02-04T05:52:28;97879.39;;;4.76;39.22
47082;BME280;33066;49.296;14.470;2023-02-04T05:54:54;97893.40;;;5.29;38.09
47082;BME280;33066;49.296;14.470;2023-02-04T05:57:19;97882.45;;;5.11;37.76
47082;BME280;33066;49.296;14.470;2023-02-04T05:59:45;97892.24;;;4.62;38.51
47082;BME280;33066;49.296;14.470;2023-02-04T06:02:10;97919.90;;;4.72;38.61
47082;BME280;33066;49.296;14.470;2023-02-04T06:04:36;97913.15;;;4.94;37.71
47082;BME280;33066;49.296;14.470;2023-02-04T06:07:02;97925.35;;;5.13;37.20
47082;BME280;33066;49.296;14.470;2023-02-04T06:09:27;97932.55;;;5.05;36.85
47082;BME280;33066;49.296;14.470;2023-02-04T06:11:53;97919.30;;;4.95;36.48
47082;BME280;33066;49.296;14.470;2023-02-04T06:14:18;97942.91;;;4.85;35.81
47082;BME280;33066;49.296;14.470;2023-02-04T06:16:44;97965.35;;;4.44;36.24
47082;BME280;33066;49.296;14.470;2023-02-04T06:19:10;97947.46;;;4.44;35.31
47082;BME280;33066;49.296;14.470;2023-02-04T06:21:35;97957.74;;;4.36;35.74
47082;BME280;33066;49.296;14.470;2023-02-04T06:24:01;97964.70;;;3.85;35.88
47082;BME280;33066;49.296;14.470;2023-02-04T06:26:26;97977.90;;;4.40;35.67
47082;BME280;33066;49.296;14.470;2023-02-04T06:28:52;97985.60;;;4.64;34.79
47082;BME280;33066;49.296;14.470;2023-02-04T06:31:18;97998.72;;;4.65;34.93
47082;BME280;33066;49.296;14.470;2023-02-04T06:33:44;98007.08;;;4.74;35.28
47082;BME280;33066;49.296;14.470;2023-02-04T06:36:09;98002.20;;;4.75;35.28
47082;BME280;33066;49.296;14.470;2023-02-04T06:38:34;98015.69;;;4.58;35.76
47082;BME280;33066;49.296;14.470;2023-02-04T06:41:00;98028.96;;;4.36;35.92
47082;BME280;33066;49.296;14.470;2023-02-04T06:43:26;98030.72;;;4.57;36.13
47082;BME280;33066;49.296;14.470;2023-02-04T06:45:51;98040.43;;;4.35;36.62
47082;BME280;33066;49.296;14.470;2023-02-04T06:48:17;98034.30;;;4.54;36.15
47082;BME280;33066;49.296;14.470;2023-02-04T06:50:43;98047.00;;;4.97;35.80
47082;BME280;33066;49.296;14.470;2023-02-04T06:53:08;98058.74;;;4.81;35.92
47082;BME280;33066;49.296;14.470;2023-02-04T06:55:34;98055.96;;;4.90;36.13
47082;BME280;33066;49.296;14.470;2023-02-04T06:57:59;98051.25;;;5.15;34.88
47082;BME280;33066;49.296;14.470;2023-02-04T07:00:25;98074.62;;;4.00;34.64
47082;BME280;33066;49.296;14.470;2023-02-04T07:02:50;98076.70;;;4.78;35.51
47082;BME280;33066;49.296;14.470;2023-02-04T07:05:16;98078.65;;;4.93;36.52
47082;BME280;33066;49.296;14.470;2023-02-04T07:07:42;98090.48;;;4.88;36.47
47082;BME280;33066;49.296;14.470;2023-02-04T07:10:08;98095.69;;;4.92;36.77
47082;BME280;33066;49.296;14.470;2023-02-04T07:12:33;98091.95;;;4.92;35.94
47082;BME280;33066;49.296;14.470;2023-02-04T07:14:58;98087.01;;;4.69;36.10
47082;BME280;33066;49.296;14.470;2023-02-04T07:17:24;98110.80;;;4.36;37.07
47082;BME280;33066;49.296;14.470;2023-02-04T07:19:49;98100.02;;;4.75;37.05
47082;BME280;33066;49.296;14.470;2023-02-04T07:22:15;98098.87;;;4.92;36.00
47082;BME280;33066;49.296;14.470;2023-02-04T07:24:40;98115.81;;;5.02;35.62
47082;BME280;33066;49.296;14.470;2023-02-04T07:27:06;98114.02;;;5.15;34.99
47082;BME280;33066;49.296;14.470;2023-02-04T07:29:32;98112.67;;;4.94;34.90
47082;BME280;33066;49.296;14.470;2023-02-04T07:31:57;98107.55;;;5.07;34.87
47082;BME280;33066;49.296;14.470;2023-02-04T07:34:23;98119.93;;;5.15;35.31
47082;BME280;33066;49.296;14.470;2023-02-04T07:36:48;98133.86;;;4.82;35.74
47082;BME280;33066;49.296;14.470;2023-02-04T07:39:14;98132.45;;;4.97;35.40
47082;BME280;33066;49.296;14.470;2023-02-04T07:41:39;98151.26;;;5.00;36.12
47082;BME280;33066;49.296;14.470;2023-02-04T07:44:05;98156.16;;;5.17;35.09
47082;BME280;33066;49.296;14.470;2023-02-04T07:46:30;98161.77;;;5.15;35.44
47082;BME280;33066;49.296;14.470;2023-02-04T07:48:56;98172.99;;;5.14;35.39
47082;BME280;33066;49.296;14.470;2023-02-04T07:51:21;98179.49;;;5.33;35.58
47082;BME280;33066;49.296;14.470;2023-02-04T07:53:47;98186.98;;;5.33;35.75
47082;BME280;33066;49.296;14.470;2023-02-04T07:56:13;98191.61;;;5.80;35.57
47082;BME280;33066;49.296;14.470;2023-02-04T07:58:38;98196.27;;;6.20;34.70
47082;BME280;33066;49.296;14.470;2023-02-04T08:01:04;98204.21;;;5.89;34.25
47082;BME280;33066;49.296;14.470;2023-02-04T08:03:29;98215.52;;;5.83;34.39
47082;BME280;33066;49.296;14.470;2023-02-04T08:05:55;98224.76;;;5.62;34.51
47082;BME280;33066;49.296;14.470;2023-02-04T08:08:20;98227.12;;;5.61;34.71
47082;BME280;33066;49.296;14.470;2023-02-04T08:10:46;98226.60;;;5.65;35.49
47082;BME280;33066;49.296;14.470;2023-02-04T08:13:11;98229.00;;;5.69;34.77
47082;BME280;33066;49.296;14.470;2023-02-04T08:15:37;98234.32;;;5.93;35.12
47082;BME280;33066;49.296;14.470;2023-02-04T08:18:03;98229.96;;;6.25;34.65
47082;BME280;33066;49.296;14.470;2023-02-04T08:20:28;98236.42;;;5.97;34.08
47082;BME280;33066;49.296;14.470;2023-02-04T08:22:54;98232.90;;;6.05;34.49
47082;BME280;33066;49.296;14.470;2023-02-04T08:25:19;98242.61;;;5.94;34.35
47082;BME280;33066;49.296;14.470;2023-02-04T08:27:45;98240.29;;;5.89;34.53
47082;BME280;33066;49.296;14.470;2023-02-04T08:30:11;98241.88;;;5.93;34.27
47082;BME280;33066;49.296;14.470;2023-02-04T08:32:36;98240.30;;;5.96;34.06
47082;BME280;33066;49.296;14.470;2023-02-04T08:35:02;98253.73;;;6.03;34.07
47082;BME280;33066;49.296;14.470;2023-02-04T08:37:27;98247.73;;;6.25;33.71
47082;BME280;33066;49.296;14.470;2023-02-04T08:39:53;98258.91;;;5.95;33.77
47082;BME280;33066;49.296;14.470;2023-02-04T08:42:18;98265.85;;;5.60;33.85
47082;BME280;33066;49.296;14.470;2023-02-04T08:44:43;98270.68;;;5.85;33.83
47082;BME280;33066;49.296;14.470;2023-02-04T08:47:09;98272.99;;;6.00;33.76
47082;BME280;33066;49.296;14.470;2023-02-04T08:49:35;98270.09;;;5.86;33.17
47082;BME280;33066;49.296;14.470;2023-02-04T08:52:00;98267.06;;;5.80;33.37
47082;BME280;33066;49.296;14.470;2023-02-04T08:54:25;98272.32;;;5.90;33.49
47082;BME280;33066;49.296;14.470;2023-02-04T08:56:51;98291.05;;;5.86;33.36
47082;BME280;33066;49.296;14.470;2023-02-04T08:59:17;98297.01;;;5.96;33.49
47082;BME280;33066;49.296;14.470;2023-02-04T09:01:42;98301.34;;;5.60;33.78
47082;BME280;33066;49.296;14.470;2023-02-04T09:04:08;98303.73;;;5.70;33.75
47082;BME280;33066;49.296;14.470;2023-02-04T09:06:33;98311.15;;;5.64;33.45
47082;BME280;33066;49.296;14.470;2023-02-04T09:08:59;98321.72;;;5.78;33.03
47082;BME280;33066;49.296;14.470;2023-02-04T09:11:24;98324.01;;;5.95;33.19
47082;BME280;33066;49.296;14.470;2023-02-04T09:13:50;98328.70;;;6.37;33.10
47082;BME280;33066;49.296;14.470;2023-02-04T09:16:15;98332.25;;;6.00;32.93
47082;BME280;33066;49.296;14.470;2023-02-04T09:18:40;98336.34;;;6.64;32.60
47082;BME280;33066;49.296;14.470;2023-02-04T09:21:06;98342.66;;;6.14;32.62
47082;BME280;33066;49.296;14.470;2023-02-04T09:23:32;98345.40;;;6.50;32.46
47082;BME280;33066;49.296;14.470;2023-02-04T09:25:57;98345.26;;;6.43;32.33
47082;BME280;33066;49.296;14.470;2023-02-04T09:28:23;98356.17;;;6.14;32.26
47082;BME280;33066;49.296;14.470;2023-02-04T09:30:48;98360.28;;;6.36;32.45
47082;BME280;33066;49.296;14.470;2023-02-04T09:33:15;98363.94;;;6.42;31.91
47082;BME280;33066;49.296;14.470;2023-02-04T09:35:39;98367.96;;;6.62;32.39
47082;BME280;33066;49.296;14.470;2023-02-04T09:38:05;98370.72;;;6.89;32.06
47082;BME280;33066;49.296;14.470;2023-02-04T09:40:32;98374.76;;;7.16;32.11
47082;BME280;33066;49.296;14.470;2023-02-04T09:42:55;98382.40;;;6.90;32.46
47082;BME280;33066;49.296;14.470;2023-02-04T09:45:23;98385.75;;;6.98;31.95
47082;BME280;33066;49.296;14.470;2023-02-04T09:47:47;98380.92;;;7.28;31.79
47082;BME280;33066;49.296;14.470;2023-02-04T09:50:14;98402.91;;;6.91;32.35
47082;BME280;33066;49.296;14.470;2023-02-04T09:52:37;98403.42;;;6.81;32.50
47082;BME280;33066;49.296;14.470;2023-02-04T09:55:07;98413.13;;;6.51;32.96
47082;BME280;33066;49.296;14.470;2023-02-04T09:57:28;98413.02;;;6.63;33.42
47082;BME280;33066;49.296;14.470;2023-02-04T09:59:54;98413.06;;;6.15;33.84
47082;BME280;33066;49.296;14.470;2023-02-04T10:02:22;98416.47;;;6.44;35.13
47082;BME280;33066;49.296;14.470;2023-02-04T10:04:45;98422.11;;;6.18;36.06
47082;BME280;33066;49.296;14.470;2023-02-04T10:07:11;98433.60;;;6.01;37.49
47082;BME280;33066;49.296;14.470;2023-02-04T10:09:35;98441.97;;;6.20;37.54
47082;BME280;33066;49.296;14.470;2023-02-04T10:12:01;98444.76;;;6.14;36.84
47082;BME280;33066;49.296;14.470;2023-02-04T10:14:27;98453.20;;;6.48;37.95
47082;BME280;33066;49.296;14.470;2023-02-04T10:16:54;98460.05;;;6.76;35.72
47082;BME280;33066;49.296;14.470;2023-02-04T10:19:18;98467.53;;;6.81;35.09
47082;BME280;33066;49.296;14.470;2023-02-04T10:21:44;98464.75;;;6.58;33.79
47082;BME280;33066;49.296;14.470;2023-02-04T10:24:12;98469.04;;;6.33;33.94
47082;BME280;33066;49.296;14.470;2023-02-04T10:26:34;98467.33;;;6.28;32.96
47082;BME280;33066;49.296;14.470;2023-02-04T10:29:02;98476.30;;;6.73;32.48
47082;BME280;33066;49.296;14.470;2023-02-04T10:31:28;98476.34;;;6.49;32.16
47082;BME280;33066;49.296;14.470;2023-02-04T10:34:02;98474.50;;;6.52;31.77
47082;BME280;33066;49.296;14.470;2023-02-04T10:36:17;98473.55;;;6.45;31.54
47082;BME280;33066;49.296;14.470;2023-02-04T10:38:42;98469.38;;;6.57;31.04
47082;BME280;33066;49.296;14.470;2023-02-04T10:41:13;98472.91;;;6.69;30.55
47082;BME280;33066;49.296;14.470;2023-02-04T10:43:33;98471.80;;;6.87;31.11
47082;BME280;33066;49.296;14.470;2023-02-04T10:46:01;98474.58;;;7.27;30.47
47082;BME280;33066;49.296;14.470;2023-02-04T10:48:24;98472.95;;;7.90;29.28
47082;BME280;33066;49.296;14.470;2023-02-04T10:50:50;98476.14;;;7.21;30.42
47082;BME280;33066;49.296;14.470;2023-02-04T10:53:18;98478.29;;;7.30;29.59
47082;BME280;33066;49.296;14.470;2023-02-04T10:55:41;98478.06;;;7.27;29.88
47082;BME280;33066;49.296;14.470;2023-02-04T10:58:09;98481.12;;;7.51;29.49
47082;BME280;33066;49.296;14.470;2023-02-04T11:00:32;98484.27;;;7.52;29.28
47082;BME280;33066;49.296;14.470;2023-02-04T11:02:59;98480.04;;;7.29;27.69
47082;BME280;33066;49.296;14.470;2023-02-04T11:05:28;98481.67;;;7.50;27.82
47082;BME280;33066;49.296;14.470;2023-02-04T11:07:49;98482.33;;;7.50;27.37
47082;BME280;33066;49.296;14.470;2023-02-04T11:10:16;98488.42;;;7.75;27.21
47082;BME280;33066;49.296;14.470;2023-02-04T11:12:42;98479.05;;;6.60;26.69
47082;BME280;33066;49.296;14.470;2023-02-04T11:15:06;98478.64;;;8.36;26.47
47082;BME280;33066;49.296;14.470;2023-02-04T11:17:33;98488.11;;;7.85;26.94
47082;BME280;33066;49.296;14.470;2023-02-04T11:19:56;98498.94;;;7.37;27.60
47082;BME280;33066;49.296;14.470;2023-02-04T11:22:23;98504.89;;;7.47;27.98
47082;BME280;33066;49.296;14.470;2023-02-04T11:24:47;98509.22;;;7.50;28.10
47082;BME280;33066;49.296;14.470;2023-02-04T11:27:18;98508.35;;;7.70;28.37
47082;BME280;33066;49.296;14.470;2023-02-04T11:29:37;98508.05;;;7.76;28.65
47082;BME280;33066;49.296;14.470;2023-02-04T11:32:05;98511.71;;;7.64;28.20
47082;BME280;33066;49.296;14.470;2023-02-04T11:34:42;98509.25;;;8.08;28.24
47082;BME280;33066;49.296;14.470;2023-02-04T11:37:02;98506.83;;;8.53;28.40
47082;BME280;33066;49.296;14.470;2023-02-04T11:39:20;98515.69;;;8.25;28.62
47082;BME280;33066;49.296;14.470;2023-02-04T11:41:45;98517.32;;;7.89;28.85
47082;BME280;33066;49.296;14.470;2023-02-04T11:44:11;98521.61;;;7.41;29.69
47082;BME280;33066;49.296;14.470;2023-02-04T11:46:36;98523.13;;;7.30;29.52
47082;BME280;33066;49.296;14.470;2023-02-04T11:49:02;98531.23;;;7.06;30.21
47082;BME280;33066;49.296;14.470;2023-02-04T11:51:30;98533.01;;;6.73;30.62
47082;BME280;33066;49.296;14.470;2023-02-04T11:53:53;98534.18;;;7.07;30.65
47082;BME280;33066;49.296;14.470;2023-02-04T11:56:19;98535.40;;;7.14;30.73
47082;BME280;33066;49.296;14.470;2023-02-04T11:58:44;98536.44;;;6.97;30.95
47082;BME280;33066;49.296;14.470;2023-02-04T12:01:15;98539.47;;;6.83;31.01
47082;BME280;33066;49.296;14.470;2023-02-04T12:03:44;98538.81;;;6.64;31.65
47082;BME280;33066;49.296;14.470;2023-02-04T12:06:00;98543.02;;;6.64;32.71
47082;BME280;33066;49.296;14.470;2023-02-04T12:08:31;98545.38;;;6.54;32.35
47082;BME280;33066;49.296;14.470;2023-02-04T12:11:01;98545.64;;;6.59;32.91
47082;BME280;33066;49.296;14.470;2023-02-04T12:13:20;98540.17;;;6.63;33.28
47082;BME280;33066;49.296;14.470;2023-02-04T12:15:41;98537.80;;;6.70;32.49
47082;BME280;33066;49.296;14.470;2023-02-04T12:18:08;98540.52;;;6.78;33.14
47082;BME280;33066;49.296;14.470;2023-02-04T12:20:34;98541.64;;;6.94;33.61
47082;BME280;33066;49.296;14.470;2023-02-04T12:22:58;98540.47;;;7.10;32.01
47082;BME280;33066;49.296;14.470;2023-02-04T12:25:24;98535.65;;;7.39;30.61
47082;BME280;33066;49.296;14.470;2023-02-04T12:27:49;98540.46;;;7.67;31.16
47082;BME280;33066;49.296;14.470;2023-02-04T12:30:15;98530.65;;;7.61;30.52
47082;BME280;33066;49.296;14.470;2023-02-04T12:32:40;98533.89;;;8.03;30.20
47082;BME280;33066;49.296;14.470;2023-02-04T12:35:06;98528.26;;;8.49;28.32
47082;BME280;33066;49.296;14.470;2023-02-04T12:37:31;98526.59;;;8.27;28.26
47082;BME280;33066;49.296;14.470;2023-02-04T12:39:57;98529.56;;;8.31;28.59
47082;BME280;33066;49.296;14.470;2023-02-04T12:42:22;98525.21;;;7.98;28.73
47082;BME280;33066;49.296;14.470;2023-02-04T12:44:48;98536.66;;;7.71;29.66
47082;BME280;33066;49.296;14.470;2023-02-04T12:47:13;98536.75;;;7.61;29.68
47082;BME280;33066;49.296;14.470;2023-02-04T12:49:38;98532.92;;;7.67;29.72
47082;BME280;33066;49.296;14.470;2023-02-04T12:52:04;98534.18;;;7.58;29.24